Time;durP1;ratioP1;P1;durP2;ratioP2;P2;SDS_P1;SDS_P2;PMS_P1;PMS_P2;Temp;Humidity;BMP_temperature;BMP_pressure;BME280_temperature;BME280_humidity;BME280_pressure;Samples;Min_cycle;Max_cycle;Signal;HPM_P1;HPM_P2
2023/05/09 00:02:05;;;;;;;21.40;19.20;;;9.20;99.90;;;;;;5090120;28;20215;-79
2023/05/09 00:04:34;;;;;;;21.47;19.37;;;9.20;99.90;;;;;;5092312;28;20544;-76
2023/05/09 00:07:02;;;;;;;21.83;19.53;;;9.20;99.90;;;;;;5092530;28;20206;-75
2023/05/09 00:09:30;;;;;;;22.77;20.47;;;9.10;99.90;;;;;;5092113;28;20226;-76
2023/05/09 00:12:00;;;;;;;21.93;19.73;;;9.10;99.90;;;;;;5091086;28;20326;-76
2023/05/09 00:14:28;;;;;;;21.07;18.87;;;9.10;99.90;;;;;;5092519;28;20217;-75
2023/05/09 00:16:58;;;;;;;21.47;19.13;;;9.10;99.90;;;;;;5092617;28;20294;-76
2023/05/09 00:19:26;;;;;;;21.20;18.70;;;9.10;99.90;;;;;;5097608;28;20226;-75
2023/05/09 00:21:54;;;;;;;20.67;18.47;;;9.10;99.90;;;;;;5092811;28;20209;-74
2023/05/09 00:24:22;;;;;;;20.00;17.83;;;9.10;99.90;;;;;;5093168;28;20206;-74
2023/05/09 00:26:50;;;;;;;21.07;17.87;;;9.20;99.90;;;;;;5092068;28;20207;-77
2023/05/09 00:29:19;;;;;;;18.73;16.93;;;9.20;99.90;;;;;;5092783;28;20745;-78
2023/05/09 00:31:47;;;;;;;17.93;16.10;;;9.20;99.90;;;;;;5091982;28;20298;-75
2023/05/09 00:34:16;;;;;;;16.93;15.23;;;9.30;99.90;;;;;;5093144;28;20211;-80
2023/05/09 00:36:44;;;;;;;16.93;15.23;;;9.30;99.90;;;;;;5091222;28;20211;-76
2023/05/09 00:39:12;;;;;;;15.83;14.33;;;9.40;99.90;;;;;;5092285;28;20203;-72
2023/05/09 00:41:40;;;;;;;16.10;14.43;;;9.40;99.90;;;;;;5093004;28;20285;-78
2023/05/09 00:44:08;;;;;;;14.83;13.33;;;9.50;99.90;;;;;;5094435;28;20694;-80
2023/05/09 00:46:38;;;;;;;16.87;13.67;;;9.50;99.90;;;;;;5096507;28;20230;-76
2023/05/09 00:49:06;;;;;;;13.93;12.53;;;9.50;99.90;;;;;;5095158;28;20309;-78
2023/05/09 00:51:36;;;;;;;14.17;12.77;;;9.60;99.90;;;;;;5096425;28;20321;-80
2023/05/09 00:54:05;;;;;;;14.97;12.50;;;9.60;99.90;;;;;;5096097;28;20630;-74
2023/05/09 00:56:36;;;;;;;13.80;12.47;;;9.60;99.90;;;;;;5084377;28;20207;-80
2023/05/09 00:59:05;;;;;;;13.30;12.10;;;9.60;99.90;;;;;;5075835;28;20207;-74
2023/05/09 01:01:33;;;;;;;13.60;12.20;;;9.60;99.90;;;;;;5075998;28;20215;-76
2023/05/09 01:04:03;;;;;;;13.47;11.70;;;9.50;99.90;;;;;;5075589;28;20233;-78
2023/05/09 01:06:38;;;;;;;13.57;12.27;;;9.50;99.90;;;;;;5090062;28;20298;-78
2023/05/09 01:09:17;;;;;;;12.80;11.50;;;9.60;99.90;;;;;;5095680;28;20279;-77
2023/05/09 01:11:53;;;;;;;13.20;11.90;;;9.50;99.90;;;;;;5095831;28;20700;-79
2023/05/09 01:14:29;;;;;;;13.57;12.17;;;9.50;99.90;;;;;;5095466;28;20202;-78
2023/05/09 01:17:07;;;;;;;12.10;10.77;;;9.40;99.90;;;;;;5095976;28;20202;-79
2023/05/09 01:19:59;;;;;;;11.17;10.07;;;9.40;99.90;;;;;;5095970;28;20209;-79
2023/05/09 01:22:33;;;;;;;11.87;10.50;;;9.50;99.90;;;;;;5091471;28;20206;-78
2023/05/09 01:25:40;;;;;;;11.60;10.40;;;9.50;99.90;;;;;;5095812;28;20206;-79
2023/05/09 01:28:14;;;;;;;11.97;10.77;;;9.50;99.90;;;;;;5063793;28;20207;-79
2023/05/09 01:30:46;;;;;;;12.23;10.43;;;9.40;99.90;;;;;;5084158;28;20579;-76
2023/05/09 01:33:19;;;;;;;10.97;9.87;;;9.40;99.90;;;;;;5094924;28;20657;-77
2023/05/09 01:35:51;;;;;;;10.87;9.80;;;9.40;99.90;;;;;;5095818;28;20219;-78
2023/05/09 01:38:23;;;;;;;10.73;9.17;;;9.40;99.90;;;;;;5093898;28;20207;-75
2023/05/09 01:40:54;;;;;;;11.10;10.00;;;9.40;99.90;;;;;;5095120;28;20290;-77
2023/05/09 01:43:25;;;;;;;10.80;9.37;;;9.30;99.90;;;;;;5093864;28;20230;-75
2023/05/09 01:45:56;;;;;;;10.97;9.87;;;9.30;99.90;;;;;;5095156;28;20199;-76
2023/05/09 01:48:26;;;;;;;10.53;9.43;;;9.30;99.90;;;;;;5093984;28;20214;-76
2023/05/09 01:50:55;;;;;;;11.67;9.80;;;9.30;99.90;;;;;;5095518;28;20237;-77
2023/05/09 01:53:25;;;;;;;10.70;9.70;;;9.30;99.90;;;;;;5093239;28;20223;-77
2023/05/09 01:55:54;;;;;;;11.83;9.67;;;9.20;99.90;;;;;;5093598;28;20207;-74
2023/05/09 01:58:23;;;;;;;12.27;9.87;;;9.20;99.90;;;;;;5095012;28;20217;-75
2023/05/09 02:00:52;;;;;;;10.53;9.50;;;9.10;99.90;;;;;;5095126;28;20567;-78
2023/05/09 02:03:22;;;;;;;12.53;9.77;;;9.10;99.90;;;;;;5093604;28;20253;-78
2023/05/09 02:05:51;;;;;;;10.63;9.53;;;9.10;99.90;;;;;;5095035;28;20211;-77
2023/05/09 02:08:21;;;;;;;10.97;9.87;;;9.00;99.90;;;;;;5094943;28;20203;-78
2023/05/09 02:10:49;;;;;;;10.83;9.73;;;9.00;99.90;;;;;;5094366;28;20203;-81
2023/05/09 02:13:17;;;;;;;10.67;9.57;;;8.90;99.90;;;;;;5092978;28;20215;-76
2023/05/09 02:15:46;;;;;;;11.20;10.10;;;8.90;99.90;;;;;;5094464;28;20272;-79
2023/05/09 02:18:15;;;;;;;10.13;9.13;;;8.80;99.90;;;;;;5095166;28;20215;-79
2023/05/09 02:20:45;;;;;;;13.03;10.27;;;8.70;99.90;;;;;;5094348;28;20677;-80
2023/05/09 02:23:14;;;;;;;10.37;9.30;;;8.70;99.90;;;;;;5093404;28;20677;-77
2023/05/09 02:25:42;;;;;;;10.77;9.37;;;8.60;99.90;;;;;;5094234;28;20225;-79
2023/05/09 02:28:11;;;;;;;10.63;9.53;;;8.50;99.90;;;;;;5094020;28;20664;-77
2023/05/09 02:30:42;;;;;;;12.63;9.93;;;8.50;99.90;;;;;;5093661;28;20231;-80
2023/05/09 02:33:12;;;;;;;10.77;9.67;;;8.40;99.90;;;;;;5093968;28;20202;-80
2023/05/09 02:35:43;;;;;;;10.90;9.70;;;8.40;99.90;;;;;;5094574;28;20609;-80
2023/05/09 02:38:15;;;;;;;10.50;9.40;;;8.30;99.90;;;;;;5093069;28;20301;-80
2023/05/09 02:40:44;;;;;;;10.87;9.33;;;8.20;99.90;;;;;;5094028;28;20560;-80
2023/05/09 02:43:13;;;;;;;10.40;9.37;;;8.20;99.90;;;;;;5093749;28;20747;-80
2023/05/09 02:45:42;;;;;;;10.97;9.53;;;8.10;99.90;;;;;;5092672;28;20227;-80
2023/05/09 02:48:10;;;;;;;9.90;8.90;;;8.10;99.90;;;;;;5073452;28;20210;-77
2023/05/09 02:50:41;;;;;;;10.10;9.10;;;8.10;99.90;;;;;;5073494;28;20239;-78
2023/05/09 02:53:09;;;;;;;10.10;9.07;;;8.00;99.90;;;;;;5073330;28;20215;-78
2023/05/09 02:55:39;;;;;;;11.47;8.57;;;8.00;99.90;;;;;;5072421;28;20657;-77
2023/05/09 02:58:08;;;;;;;10.33;9.30;;;8.00;99.90;;;;;;5094323;28;20246;-80
2023/05/09 03:00:41;;;;;;;9.27;8.27;;;8.00;99.90;;;;;;5094020;28;20218;-77
2023/05/09 03:03:10;;;;;;;10.07;8.50;;;7.90;99.90;;;;;;5093730;28;20573;-79
2023/05/09 03:05:38;;;;;;;9.70;8.70;;;7.90;99.90;;;;;;5092933;28;20207;-79
2023/05/09 03:08:06;;;;;;;10.27;9.27;;;7.80;99.90;;;;;;5093648;28;20291;-78
2023/05/09 03:10:34;;;;;;;10.17;9.10;;;7.80;99.90;;;;;;5093355;28;20228;-76
2023/05/09 03:13:04;;;;;;;10.33;9.33;;;7.80;99.90;;;;;;5091751;28;20679;-78
2023/05/09 03:15:32;;;;;;;10.53;9.43;;;7.70;99.90;;;;;;5093754;28;20210;-80
2023/05/09 03:18:00;;;;;;;10.13;9.03;;;7.70;99.90;;;;;;5093079;28;20202;-76
2023/05/09 03:20:28;;;;;;;11.30;8.93;;;7.60;99.90;;;;;;5093372;28;20242;-78
2023/05/09 03:22:56;;;;;;;10.27;9.17;;;7.60;99.90;;;;;;5091722;28;20680;-79
2023/05/09 03:25:25;;;;;;;14.27;9.53;;;7.60;99.90;;;;;;5092540;28;20294;-79
2023/05/09 03:27:53;;;;;;;11.37;9.60;;;7.60;99.90;;;;;;5093261;28;20278;-78
2023/05/09 03:30:22;;;;;;;10.53;9.43;;;7.60;99.90;;;;;;5091462;28;20314;-79
2023/05/09 03:32:50;;;;;;;10.67;9.07;;;7.50;99.90;;;;;;5092039;28;20195;-79
2023/05/09 03:35:19;;;;;;;10.80;9.60;;;7.50;99.90;;;;;;5092393;28;20271;-74
2023/05/09 03:37:47;;;;;;;10.83;9.73;;;7.40;99.90;;;;;;5088870;28;20795;-74
2023/05/09 03:40:15;;;;;;;10.63;9.63;;;7.40;99.90;;;;;;5092306;28;20267;-78
2023/05/09 03:42:43;;;;;;;11.90;9.57;;;7.40;99.90;;;;;;5092720;28;20613;-79
2023/05/09 03:45:12;;;;;;;12.03;9.97;;;7.30;99.90;;;;;;5093185;28;20297;-79
2023/05/09 03:47:41;;;;;;;11.80;9.87;;;7.30;99.90;;;;;;5091348;28;20249;-79
2023/05/09 03:50:10;;;;;;;10.90;9.83;;;7.30;99.90;;;;;;5092766;28;20651;-79
2023/05/09 03:52:38;;;;;;;11.17;10.00;;;7.30;99.90;;;;;;5092711;28;20211;-79
2023/05/09 03:55:07;;;;;;;11.03;9.93;;;7.20;99.90;;;;;;5091833;28;20210;-77
2023/05/09 03:57:35;;;;;;;10.93;9.80;;;7.20;99.90;;;;;;5092530;28;20213;-80
2023/05/09 04:00:05;;;;;;;13.57;9.63;;;7.30;99.90;;;;;;5092377;28;20238;-77
2023/05/09 04:02:33;;;;;;;10.77;9.67;;;7.30;99.90;;;;;;5091334;28;20592;-78
2023/05/09 04:05:03;;;;;;;12.80;10.07;;;7.40;99.90;;;;;;5093049;28;20214;-77
2023/05/09 04:07:31;;;;;;;11.13;9.07;;;7.40;99.90;;;;;;5091533;28;20292;-78
2023/05/09 04:10:00;;;;;;;10.87;9.73;;;7.50;99.90;;;;;;5092607;28;20256;-76
2023/05/09 04:12:28;;;;;;;10.93;9.63;;;7.60;99.90;;;;;;5091106;28;20301;-78
2023/05/09 04:14:56;;;;;;;11.87;9.40;;;7.50;99.90;;;;;;5092613;28;20594;-75
2023/05/09 04:17:24;;;;;;;10.60;9.00;;;7.60;99.90;;;;;;5091671;28;20692;-78
2023/05/09 04:19:52;;;;;;;14.13;9.40;;;7.60;99.90;;;;;;5092289;28;20294;-79
2023/05/09 04:22:22;;;;;;;12.97;9.23;;;7.50;99.90;;;;;;5091617;28;20230;-76
2023/05/09 04:24:50;;;;;;;11.07;9.40;;;7.60;99.90;;;;;;5093052;28;20309;-76
2023/05/09 04:27:18;;;;;;;13.10;9.03;;;7.60;99.90;;;;;;5100419;28;20237;-76
2023/05/09 04:29:48;;;;;;;10.90;8.93;;;7.60;99.90;;;;;;5092064;28;20215;-76
2023/05/09 04:32:16;;;;;;;10.30;8.70;;;7.60;99.90;;;;;;5092575;28;20206;-76
2023/05/09 04:34:44;;;;;;;9.43;8.30;;;7.60;99.90;;;;;;5093016;28;20579;-76
2023/05/09 04:37:12;;;;;;;9.13;8.07;;;7.70;99.90;;;;;;5104132;28;20217;-76
2023/05/09 04:39:42;;;;;;;9.73;8.00;;;7.70;99.90;;;;;;5087213;28;20208;-76
2023/05/09 04:42:10;;;;;;;9.77;7.93;;;7.70;99.90;;;;;;5095613;28;20203;-77
2023/05/09 04:44:38;;;;;;;10.73;8.07;;;7.80;99.90;;;;;;5092939;28;20207;-80
2023/05/09 04:47:06;;;;;;;11.03;7.80;;;7.90;99.90;;;;;;5089642;28;20207;-80
2023/05/09 04:49:35;;;;;;;11.13;7.40;;;7.90;99.90;;;;;;5092551;28;20211;-79
2023/05/09 04:52:04;;;;;;;10.27;7.80;;;7.90;99.90;;;;;;5091490;28;20340;-78
2023/05/09 04:54:32;;;;;;;10.50;7.57;;;7.90;99.90;;;;;;5092070;28;20207;-80
2023/05/09 04:57:03;;;;;;;8.10;7.30;;;7.90;99.90;;;;;;5092364;28;20225;-77
2023/05/09 04:59:45;;;;;;;9.17;7.87;;;7.90;99.90;;;;;;5092631;28;20230;-75
2023/05/09 05:02:13;;;;;;;10.40;7.80;;;7.90;99.90;;;;;;5092786;28;20214;-75
2023/05/09 05:04:41;;;;;;;9.43;7.93;;;7.90;99.90;;;;;;5092118;28;20249;-78
2023/05/09 05:07:09;;;;;;;9.43;7.10;;;8.00;99.90;;;;;;5092138;28;20283;-77
2023/05/09 05:09:37;;;;;;;8.80;6.87;;;8.00;99.90;;;;;;5093179;28;20215;-78
2023/05/09 05:12:07;;;;;;;12.80;7.87;;;8.10;99.90;;;;;;5092220;28;20237;-78
2023/05/09 05:14:37;;;;;;;10.33;7.67;;;8.20;99.90;;;;;;5078776;28;20208;-77
2023/05/09 05:17:05;;;;;;;10.13;7.33;;;8.20;99.90;;;;;;5071524;28;20503;-75
2023/05/09 05:19:33;;;;;;;13.37;6.50;;;8.30;99.90;;;;;;5072255;28;20235;-78
2023/05/09 05:22:01;;;;;;;9.07;7.17;;;8.30;99.90;;;;;;5081378;28;20237;-78
2023/05/09 05:24:29;;;;;;;8.70;6.50;;;8.40;99.90;;;;;;5091817;28;20225;-79
2023/05/09 05:26:57;;;;;;;11.07;6.53;;;8.50;99.90;;;;;;5091897;28;20215;-75
2023/05/09 05:29:26;;;;;;;10.23;6.97;;;8.60;99.90;;;;;;5094868;28;20321;-78
2023/05/09 05:31:54;;;;;;;8.90;6.93;;;8.70;99.90;;;;;;5089383;28;20582;-76
2023/05/09 05:34:22;;;;;;;9.03;6.77;;;8.70;99.90;;;;;;5095750;28;20301;-78
2023/05/09 05:36:50;;;;;;;9.23;6.93;;;8.80;99.90;;;;;;5095188;28;20243;-79
2023/05/09 05:39:18;;;;;;;9.40;7.23;;;8.90;99.90;;;;;;5095063;28;20217;-80
2023/05/09 05:41:46;;;;;;;11.10;8.20;;;9.00;99.90;;;;;;5095165;28;20207;-79
2023/05/09 05:44:14;;;;;;;11.93;8.43;;;9.00;99.90;;;;;;5095263;28;20202;-75
2023/05/09 05:46:44;;;;;;;11.10;8.23;;;9.10;99.90;;;;;;5094879;28;20209;-76
2023/05/09 05:49:12;;;;;;;10.70;7.83;;;9.30;99.90;;;;;;5084753;28;20652;-76
2023/05/09 05:51:40;;;;;;;9.93;7.90;;;9.60;99.90;;;;;;5074320;28;20318;-75
2023/05/09 05:54:08;;;;;;;10.00;7.77;;;10.00;99.90;;;;;;5074706;28;20266;-75
2023/05/09 05:56:36;;;;;;;9.20;7.37;;;10.70;99.90;;;;;;5081761;28;20207;-76
2023/05/09 05:59:04;;;;;;;8.90;6.77;;;11.70;99.90;;;;;;5094718;28;20302;-76
2023/05/09 06:01:32;;;;;;;10.03;6.63;;;12.20;99.90;;;;;;5094553;28;20207;-76
2023/05/09 06:04:01;;;;;;;10.10;6.87;;;12.80;99.90;;;;;;5094466;28;20258;-75
2023/05/09 06:06:29;;;;;;;9.10;6.47;;;13.50;99.90;;;;;;5083546;28;20264;-74
2023/05/09 06:08:57;;;;;;;9.47;6.30;;;13.90;99.90;;;;;;5074115;28;20620;-76
2023/05/09 06:11:26;;;;;;;9.33;6.33;;;14.70;99.90;;;;;;5074165;28;20310;-79
2023/05/09 06:13:54;;;;;;;7.67;5.87;;;14.60;99.90;;;;;;5074345;28;20298;-76
2023/05/09 06:16:22;;;;;;;12.10;6.27;;;15.60;99.90;;;;;;5074653;28;20215;-74
2023/05/09 06:18:50;;;;;;;8.93;6.40;;;16.30;99.90;;;;;;5074645;28;20211;-77
2023/05/09 06:21:23;;;;;;;7.27;6.13;;;16.50;99.90;;;;;;5074311;28;20206;-75
2023/05/09 06:23:51;;;;;;;13.00;5.93;;;16.90;98.80;;;;;;5075141;28;20740;-76
2023/05/09 06:26:23;;;;;;;8.67;6.23;;;17.20;98.70;;;;;;5079020;28;20614;-77
2023/05/09 06:28:51;;;;;;;7.70;5.03;;;17.70;96.50;;;;;;5073919;28;20251;-77
2023/05/09 06:31:19;;;;;;;6.93;5.23;;;18.00;96.80;;;;;;5073578;28;20235;-77
2023/05/09 06:33:48;;;;;;;6.83;5.53;;;19.20;95.00;;;;;;5082716;28;20265;-76
2023/05/09 06:36:16;;;;;;;8.70;5.93;;;19.80;91.00;;;;;;5094133;28;20207;-77
2023/05/09 06:38:45;;;;;;;7.97;5.17;;;20.10;90.50;;;;;;5093686;28;20223;-77
2023/05/09 06:41:13;;;;;;;8.20;5.37;;;20.70;88.60;;;;;;5093696;28;20202;-76
2023/05/09 06:43:41;;;;;;;6.93;5.27;;;20.80;83.60;;;;;;5089470;28;20378;-76
2023/05/09 06:46:09;;;;;;;6.47;5.40;;;21.20;82.70;;;;;;5093658;28;20234;-78
2023/05/09 06:48:37;;;;;;;6.87;4.73;;;21.00;78.10;;;;;;5092441;28;20668;-78
2023/05/09 06:51:05;;;;;;;5.97;5.38;;;21.90;79.00;;;;;;5093259;28;20642;-78
2023/05/09 06:53:33;;;;;;;7.68;5.45;;;21.80;73.00;;;;;;5093538;28;20275;-78
2023/05/09 06:56:03;;;;;;;5.13;4.63;;;21.80;71.60;;;;;;5094190;28;20207;-77
2023/05/09 06:58:31;;;;;;;6.65;4.97;;;21.70;71.30;;;;;;5081702;28;20310;-77
2023/05/09 07:01:00;;;;;;;7.13;4.97;;;21.00;72.40;;;;;;5073257;28;20220;-79
2023/05/09 07:03:28;;;;;;;5.57;4.83;;;19.90;73.70;;;;;;5073757;28;20211;-76
2023/05/09 07:05:57;;;;;;;6.77;4.63;;;19.80;75.90;;;;;;5072928;28;20203;-76
2023/05/09 07:08:26;;;;;;;13.37;4.77;;;19.90;76.30;;;;;;5089598;28;20500;-78
2023/05/09 07:10:55;;;;;;;6.50;4.13;;;20.10;77.30;;;;;;5090572;28;20242;-76
2023/05/09 07:13:25;;;;;;;8.17;4.43;;;20.90;76.10;;;;;;5094059;28;20227;-78
2023/05/09 07:15:53;;;;;;;8.77;4.68;;;21.30;74.80;;;;;;5093762;28;20227;-83
2023/05/09 07:18:21;;;;;;;4.10;3.70;;;22.50;68.90;;;;;;5109812;28;20215;-76
2023/05/09 07:20:49;;;;;;;7.88;4.30;;;22.70;69.30;;;;;;5111632;28;20203;-76
2023/05/09 07:23:17;;;;;;;5.80;4.38;;;23.60;64.80;;;;;;5093444;28;20207;-76
2023/05/09 07:25:46;;;;;;;8.37;4.33;;;21.70;67.00;;;;;;5093067;28;20207;-76
2023/05/09 07:28:14;;;;;;;7.63;4.73;;;20.30;70.40;;;;;;5092209;28;20510;-75
2023/05/09 07:30:43;;;;;;;7.97;4.60;;;20.30;72.00;;;;;;5093219;28;20211;-73
2023/05/09 07:33:11;;;;;;;5.97;5.03;;;19.70;73.30;;;;;;5092592;28;20218;-74
2023/05/09 07:35:39;;;;;;;10.90;5.17;;;19.70;75.10;;;;;;5091737;28;20203;-74
2023/05/09 07:38:07;;;;;;;8.17;5.20;;;19.70;75.40;;;;;;5087021;28;20209;-77
2023/05/09 07:40:37;;;;;;;5.50;5.00;;;19.60;73.80;;;;;;5092892;28;20245;-77
2023/05/09 07:43:05;;;;;;;6.50;5.60;;;19.00;75.70;;;;;;5092320;28;20202;-76
2023/05/09 07:45:33;;;;;;;7.50;5.10;;;19.30;77.30;;;;;;5091587;28;20270;-74
2023/05/09 07:48:03;;;;;;;8.07;5.87;;;18.70;78.50;;;;;;5092346;28;20734;-74
2023/05/09 07:50:31;;;;;;;6.00;4.63;;;19.70;76.10;;;;;;5092236;28;20214;-75
2023/05/09 07:52:59;;;;;;;9.23;5.27;;;20.10;76.50;;;;;;5081666;28;20254;-76
2023/05/09 07:55:27;;;;;;;9.27;5.70;;;20.30;74.00;;;;;;5072360;28;20639;-74
2023/05/09 07:57:56;;;;;;;7.23;5.20;;;20.30;75.80;;;;;;5074006;28;20207;-75
2023/05/09 08:00:24;;;;;;;8.90;5.40;;;20.10;77.90;;;;;;5072093;28;20634;-74
2023/05/09 08:02:53;;;;;;;7.10;5.53;;;20.10;76.10;;;;;;5070854;28;20235;-74
2023/05/09 08:05:22;;;;;;;9.90;5.87;;;20.10;77.10;;;;;;5071877;28;20215;-76
2023/05/09 08:07:50;;;;;;;8.40;5.63;;;20.40;77.10;;;;;;5071890;28;20306;-75
2023/05/09 08:10:20;;;;;;;6.17;5.50;;;19.90;77.00;;;;;;5084803;28;20642;-75
2023/05/09 08:12:48;;;;;;;6.23;5.63;;;20.60;76.80;;;;;;5091516;28;20241;-76
2023/05/09 08:15:16;;;;;;;6.93;5.93;;;21.20;75.30;;;;;;5092934;28;20280;-75
2023/05/09 08:17:45;;;;;;;6.40;5.80;;;21.40;71.70;;;;;;5090475;28;20727;-74
2023/05/09 08:20:13;;;;;;;8.95;6.07;;;21.80;73.60;;;;;;5091672;28;20214;-78
2023/05/09 08:22:42;;;;;;;6.00;5.40;;;22.40;68.80;;;;;;5091363;28;20206;-78
2023/05/09 08:25:12;;;;;;;8.82;5.47;;;23.30;71.70;;;;;;5091859;28;20211;-80
2023/05/09 08:27:41;;;;;;;5.90;5.25;;;24.50;68.50;;;;;;5090811;28;20287;-77
2023/05/09 08:30:10;;;;;;;6.63;5.13;;;24.70;64.60;;;;;;5091471;28;20234;-79
2023/05/09 08:32:38;;;;;;;6.15;5.18;;;24.70;62.70;;;;;;5091484;28;20225;-77
2023/05/09 08:35:07;;;;;;;6.75;5.72;;;23.70;64.20;;;;;;5082020;28;20207;-78
2023/05/09 08:37:36;;;;;;;6.07;5.47;;;24.40;63.70;;;;;;5092370;28;20210;-78
2023/05/09 08:40:06;;;;;;;9.80;5.90;;;23.60;64.00;;;;;;5101546;28;20644;-77
2023/05/09 08:42:37;;;;;;;6.75;5.75;;;24.50;61.30;;;;;;5089541;28;20210;-78
2023/05/09 08:45:09;;;;;;;5.97;5.38;;;24.20;64.00;;;;;;5092016;28;20214;-78
2023/05/09 08:47:38;;;;;;;5.50;4.97;;;25.30;63.40;;;;;;5091936;28;20271;-78
2023/05/09 08:50:08;;;;;;;7.30;5.78;;;25.60;64.70;;;;;;5091647;28;20203;-77
2023/05/09 08:52:36;;;;;;;7.15;5.90;;;26.80;58.50;;;;;;5090486;28;20217;-78
2023/05/09 08:55:06;;;;;;;6.15;5.53;;;25.90;56.80;;;;;;5092006;28;20207;-78
2023/05/09 08:57:35;;;;;;;6.72;5.97;;;26.10;58.10;;;;;;5091671;28;20207;-77
2023/05/09 09:00:05;;;;;;;7.00;6.25;;;25.70;55.40;;;;;;5088498;28;20239;-81
2023/05/09 09:02:35;;;;;;;7.10;6.40;;;25.30;55.60;;;;;;5072289;28;20227;-78
2023/05/09 09:05:06;;;;;;;7.00;6.30;;;25.00;58.40;;;;;;5075054;28;20744;-80
2023/05/09 09:07:41;;;;;;;7.53;5.90;;;26.30;55.00;;;;;;5075181;28;20242;-80
2023/05/09 09:10:11;;;;;;;7.95;6.50;;;26.80;53.70;;;;;;5093554;28;20629;-79
2023/05/09 09:12:41;;;;;;;8.68;6.28;;;27.10;51.80;;;;;;5095035;28;20217;-81
2023/05/09 09:15:16;;;;;;;8.10;6.30;;;26.00;53.50;;;;;;5095499;28;20233;-77
2023/05/09 09:17:48;;;;;;;6.80;6.10;;;25.60;54.40;;;;;;5094689;28;20249;-77
2023/05/09 09:20:21;;;;;;;7.80;6.68;;;25.80;56.10;;;;;;5094920;28;20625;-78
2023/05/09 09:22:51;;;;;;;7.35;6.65;;;26.30;55.40;;;;;;5094996;28;20227;-78
2023/05/09 09:25:21;;;;;;;8.10;6.70;;;27.30;53.20;;;;;;5097791;28;20195;-78
2023/05/09 09:27:49;;;;;;;9.65;6.68;;;27.20;52.60;;;;;;5097276;28;20210;-79
2023/05/09 09:30:18;;;;;;;7.88;7.07;;;27.20;53.20;;;;;;5096737;28;20210;-78
2023/05/09 09:32:47;;;;;;;8.30;7.40;;;27.70;53.60;;;;;;5096232;28;20248;-78
2023/05/09 09:35:16;;;;;;;8.55;7.32;;;27.20;51.90;;;;;;5082228;28;20561;-77
2023/05/09 09:37:44;;;;;;;8.27;7.25;;;26.80;52.50;;;;;;5074437;28;20238;-82
2023/05/09 09:40:13;;;;;;;8.80;7.88;;;27.20;50.80;;;;;;5074897;28;20294;-76
2023/05/09 09:42:44;;;;;;;8.73;7.80;;;26.60;53.00;;;;;;5074541;28;20246;-77
2023/05/09 09:45:13;;;;;;;8.50;7.60;;;26.30;55.50;;;;;;5090762;28;20213;-78
2023/05/09 09:47:43;;;;;;;9.02;8.15;;;26.90;55.90;;;;;;5093102;28;20297;-76
2023/05/09 09:50:14;;;;;;;8.63;7.82;;;27.20;51.60;;;;;;5095050;28;20293;-80
2023/05/09 09:52:44;;;;;;;9.05;8.20;;;27.30;53.70;;;;;;5094950;28;20513;-78
2023/05/09 09:55:12;;;;;;;8.23;7.18;;;26.30;53.80;;;;;;5094988;28;20215;-78
2023/05/09 09:57:43;;;;;;;8.90;8.00;;;26.50;54.90;;;;;;5093749;28;20211;-78
2023/05/09 10:00:15;;;;;;;8.73;7.93;;;26.90;54.30;;;;;;5094621;28;20677;-76
2023/05/09 10:02:51;;;;;;;8.77;7.78;;;26.70;52.90;;;;;;5094560;28;20199;-79
2023/05/09 10:05:21;;;;;;;8.73;7.90;;;26.60;53.10;;;;;;5077463;28;20207;-79
2023/05/09 10:07:55;;;;;;;8.80;7.50;;;27.30;51.40;;;;;;5074696;28;20301;-78
2023/05/09 10:10:27;;;;;;;8.73;7.93;;;27.00;53.00;;;;;;5074610;28;20238;-79
2023/05/09 10:12:58;;;;;;;10.40;8.52;;;27.40;53.00;;;;;;5074183;28;20243;-78
2023/05/09 10:15:30;;;;;;;11.13;8.75;;;25.60;52.80;;;;;;5073795;28;20277;-78
2023/05/09 10:18:16;;;;;;;9.60;8.70;;;25.00;55.80;;;;;;5074526;28;20196;-78
2023/05/09 10:20:45;;;;;;;9.57;8.68;;;25.90;55.40;;;;;;5075096;28;20239;-79
2023/05/09 10:23:16;;;;;;;9.43;8.57;;;26.80;54.90;;;;;;5086558;28;20223;-78
2023/05/09 10:25:48;;;;;;;10.30;8.70;;;26.30;52.90;;;;;;5094403;28;20368;-78
2023/05/09 10:28:22;;;;;;;9.30;8.30;;;25.70;56.60;;;;;;5094399;28;20219;-82
2023/05/09 10:31:05;;;;;;;9.30;8.32;;;26.20;58.10;;;;;;5092915;28;20206;-78
2023/05/09 10:33:42;;;;;;;9.32;8.30;;;27.20;55.60;;;;;;5093943;28;20561;-79
2023/05/09 10:36:10;;;;;;;9.50;8.60;;;27.00;54.80;;;;;;5094490;28;20556;-79
2023/05/09 10:38:40;;;;;;;10.35;7.90;;;27.20;55.80;;;;;;5095117;28;20222;-79
2023/05/09 10:41:09;;;;;;;10.43;8.77;;;27.00;56.20;;;;;;5093058;28;20610;-80
2023/05/09 10:43:38;;;;;;;11.27;8.52;;;26.80;57.70;;;;;;5093806;28;20317;-80
2023/05/09 10:46:07;;;;;;;10.32;9.32;;;27.50;54.30;;;;;;5094406;28;20301;-79
2023/05/09 10:48:37;;;;;;;9.95;8.95;;;26.90;52.80;;;;;;5092649;28;20214;-80
2023/05/09 10:51:06;;;;;;;9.80;8.80;;;27.20;52.40;;;;;;5093685;28;20302;-76
2023/05/09 10:53:42;;;;;;;11.77;8.38;;;26.00;55.00;;;;;;5092860;28;20256;-77
2023/05/09 10:56:22;;;;;;;12.95;7.80;;;26.70;55.30;;;;;;5093902;28;20210;-77
2023/05/09 10:58:50;;;;;;;9.68;8.68;;;27.10;55.40;;;;;;5073405;28;20598;-78
2023/05/09 11:01:33;;;;;;;10.00;9.00;;;26.70;54.50;;;;;;5073236;28;20210;-78
2023/05/09 11:04:02;;;;;;;9.52;8.63;;;26.60;53.40;;;;;;5072838;28;20689;-78
2023/05/09 11:06:42;;;;;;;9.85;8.80;;;26.80;54.40;;;;;;5076716;28;20206;-80
2023/05/09 11:09:31;;;;;;;8.95;8.05;;;27.00;55.30;;;;;;5093482;28;20201;-78
2023/05/09 11:12:08;;;;;;;9.63;8.45;;;26.40;53.60;;;;;;5092990;28;20259;-81
2023/05/09 11:14:42;;;;;;;10.55;7.72;;;26.20;51.90;;;;;;5091988;28;20647;-79
2023/05/09 11:17:12;;;;;;;10.75;8.23;;;25.90;53.30;;;;;;5092856;28;20214;-79
2023/05/09 11:20:04;;;;;;;8.70;7.90;;;25.60;55.50;;;;;;5093401;28;20237;-80
2023/05/09 11:22:39;;;;;;;8.73;7.45;;;25.20;56.20;;;;;;5067963;28;20669;-75
2023/05/09 11:25:09;;;;;;;9.55;8.65;;;24.80;56.30;;;;;;5092634;28;20757;-80
2023/05/09 11:27:41;;;;;;;11.25;8.18;;;24.00;53.90;;;;;;5092943;28;20206;-77
2023/05/09 11:30:11;;;;;;;8.55;7.72;;;24.10;57.80;;;;;;5092698;28;20214;-78
2023/05/09 11:32:46;;;;;;;9.63;8.00;;;23.60;56.10;;;;;;5091481;28;20203;-78
2023/05/09 11:35:16;;;;;;;10.90;7.50;;;22.90;55.60;;;;;;5093030;28;20187;-77
2023/05/09 11:37:46;;;;;;;8.60;7.70;;;23.20;59.80;;;;;;5092632;28;20705;-75
2023/05/09 11:40:17;;;;;;;9.93;8.80;;;23.50;57.00;;;;;;5092592;28;20207;-77
2023/05/09 11:42:46;;;;;;;11.10;7.43;;;22.90;55.70;;;;;;5092545;28;20211;-75
2023/05/09 11:45:16;;;;;;;10.63;7.67;;;22.90;57.50;;;;;;5092419;28;20222;-76
2023/05/09 11:47:47;;;;;;;8.30;7.50;;;23.10;57.70;;;;;;5093232;28;20235;-75
2023/05/09 11:50:16;;;;;;;10.13;8.60;;;23.10;55.20;;;;;;5091365;28;20268;-77
2023/05/09 11:52:46;;;;;;;9.03;7.50;;;23.00;55.70;;;;;;5092872;28;20716;-77
2023/05/09 11:55:15;;;;;;;8.23;7.43;;;22.80;59.90;;;;;;5092361;28;20203;-77
2023/05/09 11:57:46;;;;;;;8.33;7.30;;;22.80;58.40;;;;;;5092527;28;20357;-77
2023/05/09 12:00:16;;;;;;;10.60;8.40;;;22.90;59.10;;;;;;5091258;28;20256;-80
2023/05/09 12:02:47;;;;;;;8.20;7.40;;;22.60;56.20;;;;;;5092097;28;20207;-78
2023/05/09 12:05:17;;;;;;;8.77;7.87;;;22.30;57.50;;;;;;5094535;28;20218;-81
2023/05/09 12:07:46;;;;;;;8.10;7.30;;;22.20;57.30;;;;;;5092425;28;20242;-75
2023/05/09 12:10:17;;;;;;;9.27;8.37;;;22.50;58.30;;;;;;5092351;28;20691;-75
2023/05/09 12:12:46;;;;;;;8.37;7.57;;;22.10;57.20;;;;;;5093097;28;20230;-74
2023/05/09 12:15:15;;;;;;;8.83;7.93;;;22.00;58.50;;;;;;5090849;28;20241;-75
2023/05/09 12:17:46;;;;;;;8.60;7.70;;;21.70;57.40;;;;;;5092765;28;20203;-77
2023/05/09 12:20:18;;;;;;;8.90;7.70;;;21.90;59.10;;;;;;5092565;28;20195;-76
2023/05/09 12:22:53;;;;;;;8.97;7.83;;;22.30;60.10;;;;;;5084280;28;20273;-76
2023/05/09 12:25:22;;;;;;;8.40;7.60;;;22.40;58.50;;;;;;5072030;28;20257;-75
2023/05/09 12:27:53;;;;;;;9.90;7.73;;;22.10;58.00;;;;;;5072330;28;20273;-74
2023/05/09 12:30:22;;;;;;;8.47;7.43;;;22.30;60.20;;;;;;5078644;28;20207;-76
2023/05/09 12:32:51;;;;;;;8.40;7.03;;;22.60;58.90;;;;;;5092243;28;20220;-76
2023/05/09 12:35:22;;;;;;;7.53;6.83;;;22.30;56.50;;;;;;5092992;28;20222;-76
2023/05/09 12:37:57;;;;;;;7.17;6.23;;;22.10;58.40;;;;;;5093896;28;20211;-76
2023/05/09 12:40:25;;;;;;;8.10;6.53;;;22.60;61.20;;;;;;5075511;28;20552;-78
2023/05/09 12:42:58;;;;;;;8.67;6.53;;;22.50;56.80;;;;;;5076180;28;20294;-77
2023/05/09 12:45:27;;;;;;;7.93;6.53;;;22.30;57.30;;;;;;5076103;28;20212;-76
2023/05/09 12:47:57;;;;;;;8.40;7.10;;;22.30;59.60;;;;;;5074836;28;20204;-75
2023/05/09 12:50:33;;;;;;;8.00;7.20;;;22.50;58.50;;;;;;5077807;28;20215;-75
2023/05/09 12:53:03;;;;;;;9.73;7.27;;;22.30;57.40;;;;;;5080865;28;20239;-75
2023/05/09 12:55:31;;;;;;;10.33;7.33;;;22.40;58.60;;;;;;5076712;28;20204;-76
2023/05/09 12:58:01;;;;;;;8.50;7.10;;;22.40;58.20;;;;;;5095841;28;20248;-76
2023/05/09 13:00:41;;;;;;;8.17;7.10;;;22.70;61.60;;;;;;5093582;28;20700;-76